createdAt,value
2022-10-21T00:00:54.830Z,5.35
2022-10-21T00:03:23.245Z,5.88
2022-10-21T00:05:50.666Z,6.38
2022-10-21T00:08:19.502Z,6.13
2022-10-21T00:10:53.785Z,6.43
2022-10-21T00:13:20.982Z,6.55
2022-10-21T00:16:07.232Z,5.93
2022-10-21T00:18:36.169Z,5.47
2022-10-21T00:21:20.109Z,6.05
2022-10-21T00:23:48.321Z,5.82
2022-10-21T00:26:16.287Z,5.22
2022-10-21T00:28:43.429Z,5.68
2022-10-21T00:31:13.550Z,5.43
2022-10-21T00:33:41.223Z,5.60
2022-10-21T00:36:14.785Z,6.25
2022-10-21T00:38:47.240Z,6.97
2022-10-21T00:41:17.957Z,5.88
2022-10-21T00:44:00.097Z,6.35
2022-10-21T00:46:48.042Z,6.75
2022-10-21T00:49:44.435Z,6.05
2022-10-21T00:52:22.820Z,5.22
2022-10-21T00:54:52.573Z,5.55
2022-10-21T00:57:21.014Z,5.63
2022-10-21T00:59:56.792Z,5.47
2022-10-21T01:02:23.824Z,5.05
2022-10-21T01:04:59.835Z,5.65
2022-10-21T01:07:27.079Z,6.20
2022-10-21T01:09:54.229Z,5.45
2022-10-21T01:12:52.766Z,5.85
2022-10-21T01:15:32.766Z,5.32
2022-10-21T01:18:17.463Z,5.40
2022-10-21T01:21:18.682Z,5.05
2022-10-21T01:23:51.223Z,4.60
2022-10-21T01:26:45.520Z,5.13
2022-10-21T01:30:03.007Z,4.78
2022-10-21T01:32:56.878Z,5.00
2022-10-21T01:35:48.413Z,4.78
2022-10-21T01:38:34.837Z,4.47
2022-10-21T01:41:12.509Z,3.60
2022-10-21T01:44:20.198Z,3.80
2022-10-21T01:47:19.632Z,4.22
2022-10-21T01:50:00.780Z,3.80
2022-10-21T01:52:30.000Z,3.97
2022-10-21T01:55:03.277Z,3.13
2022-10-21T01:57:37.552Z,3.57
2022-10-21T02:00:05.906Z,3.60
2022-10-21T02:02:40.881Z,3.30
2022-10-21T02:05:17.441Z,3.55
2022-10-21T02:07:44.476Z,3.38
2022-10-21T02:10:11.432Z,3.47
2022-10-21T02:12:40.708Z,3.95
2022-10-21T02:15:10.623Z,3.33
2022-10-21T02:17:39.639Z,3.13
2022-10-21T02:20:10.494Z,3.10
2022-10-21T02:22:40.507Z,3.17
2022-10-21T02:25:30.083Z,3.10
2022-10-21T02:27:57.251Z,3.00
2022-10-21T02:30:24.391Z,3.30
2022-10-21T02:33:03.651Z,2.72
2022-10-21T02:35:50.172Z,3.30
2022-10-21T02:38:51.973Z,2.80
2022-10-21T02:41:26.638Z,2.47
2022-10-21T02:44:00.188Z,2.60
2022-10-21T02:46:36.893Z,2.40
2022-10-21T02:49:04.449Z,2.43
2022-10-21T02:51:31.883Z,2.43
2022-10-21T02:53:59.153Z,2.10
2022-10-21T02:56:26.721Z,2.90
2022-10-21T02:58:54.353Z,2.42
2022-10-21T03:01:21.365Z,2.40
2022-10-21T03:03:48.283Z,2.60
2022-10-21T03:06:15.282Z,2.75
2022-10-21T03:08:42.205Z,2.40
2022-10-21T03:11:09.129Z,2.20
2022-10-21T03:13:36.077Z,2.23
2022-10-21T03:16:02.991Z,2.23
2022-10-21T03:18:29.908Z,2.57
2022-10-21T03:20:56.814Z,2.47
2022-10-21T03:23:23.692Z,2.60
2022-10-21T03:25:50.665Z,2.43
2022-10-21T03:28:17.615Z,2.50
2022-10-21T03:30:44.498Z,2.30
2022-10-21T03:33:11.424Z,1.90
2022-10-21T03:35:38.334Z,2.40
2022-10-21T03:38:05.398Z,2.60
2022-10-21T03:40:32.337Z,2.50
2022-10-21T03:43:00.140Z,2.40
2022-10-21T03:45:27.251Z,2.40
2022-10-21T03:47:54.201Z,2.43
2022-10-21T03:50:26.001Z,2.43
2022-10-21T03:52:54.312Z,2.30
2022-10-21T03:55:24.235Z,2.50
2022-10-21T03:57:52.058Z,2.90
2022-10-21T04:00:20.025Z,4.33
2022-10-21T04:02:47.524Z,4.07
2022-10-21T04:05:15.257Z,3.50
2022-10-21T04:07:42.295Z,3.70
2022-10-21T04:10:10.197Z,3.30
2022-10-21T04:12:37.420Z,2.67
2022-10-21T04:15:06.860Z,2.90
2022-10-21T04:17:33.793Z,2.93
2022-10-21T04:20:00.722Z,2.80
2022-10-21T04:22:27.663Z,2.70
2022-10-21T04:24:54.637Z,2.90
2022-10-21T04:27:21.509Z,3.80
2022-10-21T04:29:48.438Z,3.70
2022-10-21T04:32:15.484Z,3.40
2022-10-21T04:34:42.893Z,3.20
2022-10-21T04:37:09.829Z,3.27
2022-10-21T04:39:36.698Z,2.80
2022-10-21T04:42:04.054Z,2.77
2022-10-21T04:44:31.084Z,2.70
2022-10-21T04:46:58.212Z,2.60
2022-10-21T04:49:25.217Z,2.63
2022-10-21T04:51:52.165Z,2.53
2022-10-21T04:54:19.249Z,2.90
2022-10-21T04:56:46.165Z,3.00
2022-10-21T04:59:13.088Z,3.30
2022-10-21T05:01:40.206Z,3.37
2022-10-21T05:04:07.172Z,3.30
2022-10-21T05:06:34.071Z,3.67
2022-10-21T05:09:01.052Z,3.77
2022-10-21T05:11:28.073Z,3.40
2022-10-21T05:13:55.007Z,3.37
2022-10-21T05:16:23.897Z,3.47
2022-10-21T05:18:51.041Z,3.10
2022-10-21T05:21:18.063Z,3.70
2022-10-21T05:23:44.978Z,3.47
2022-10-21T05:26:11.938Z,3.40
2022-10-21T05:28:38.974Z,3.20
2022-10-21T05:31:05.995Z,3.60
2022-10-21T05:33:33.051Z,3.50
2022-10-21T05:36:07.824Z,3.60
2022-10-21T05:38:35.728Z,3.57
2022-10-21T05:41:03.163Z,3.73
2022-10-21T05:43:30.265Z,3.83
2022-10-21T05:45:57.561Z,3.57
2022-10-21T05:48:25.063Z,3.70
2022-10-21T05:50:54.323Z,3.67
2022-10-21T05:53:23.898Z,3.90
2022-10-21T05:56:06.812Z,3.93
2022-10-21T05:58:35.692Z,4.37
2022-10-21T06:01:03.948Z,4.63
2022-10-21T06:03:33.216Z,4.50
2022-10-21T06:06:04.286Z,4.13
2022-10-21T06:08:34.025Z,4.37
2022-10-21T06:11:08.447Z,4.37
2022-10-21T06:13:36.130Z,4.50
2022-10-21T06:18:36.408Z,4.30
2022-10-21T06:21:03.406Z,4.40
2022-10-21T06:23:30.390Z,4.60
2022-10-21T06:26:13.860Z,4.70
2022-10-21T06:28:43.222Z,4.00
2022-10-21T06:31:15.984Z,4.10
2022-10-21T06:33:42.943Z,4.50
2022-10-21T06:36:10.011Z,4.28
2022-10-21T06:38:37.777Z,3.77
2022-10-21T06:41:13.215Z,3.63
2022-10-21T06:43:42.093Z,4.10
2022-10-21T06:46:16.338Z,4.27
2022-10-21T06:48:43.346Z,3.40
2022-10-21T06:51:17.890Z,3.30
2022-10-21T06:53:46.065Z,3.70
2022-10-21T06:56:19.115Z,3.87
2022-10-21T06:58:48.952Z,3.65
2022-10-21T07:01:33.578Z,3.75
2022-10-21T07:04:01.175Z,3.70
2022-10-21T07:06:28.145Z,3.50
2022-10-21T07:08:59.198Z,3.33
2022-10-21T07:11:28.113Z,3.85
2022-10-21T07:13:55.658Z,3.65
2022-10-21T07:16:26.777Z,3.58
2022-10-21T07:18:55.144Z,3.30
2022-10-21T07:21:24.957Z,4.03
2022-10-21T07:23:54.053Z,3.72
2022-10-21T07:26:24.103Z,3.50
2022-10-21T07:28:52.223Z,2.80
2022-10-21T07:31:21.559Z,2.90
2022-10-21T07:33:49.326Z,2.67
2022-10-21T07:36:38.981Z,2.95
2022-10-21T07:39:11.946Z,2.97
2022-10-21T07:41:47.066Z,2.90
2022-10-21T07:44:14.761Z,2.80
2022-10-21T07:46:43.167Z,2.33
2022-10-21T07:49:11.115Z,2.35
2022-10-21T07:51:39.537Z,2.30
2022-10-21T07:54:07.789Z,1.98
2022-10-21T07:56:45.649Z,1.95
2022-10-21T07:59:13.880Z,1.98
2022-10-21T08:01:44.631Z,1.98
2022-10-21T08:04:15.999Z,2.25
2022-10-21T08:06:44.461Z,1.90
2022-10-21T08:09:11.454Z,2.05
2022-10-21T08:11:38.406Z,1.90
2022-10-21T08:14:08.519Z,2.17
2022-10-21T08:16:36.654Z,1.88
2022-10-21T08:19:04.514Z,1.63
2022-10-21T08:21:31.741Z,1.50
2022-10-21T08:24:01.566Z,1.50
2022-10-21T08:26:28.794Z,1.60
2022-10-21T08:28:55.776Z,1.63
2022-10-21T08:31:23.443Z,1.45
2022-10-21T08:33:50.813Z,1.60
2022-10-21T08:36:24.978Z,1.50
2022-10-21T08:38:53.241Z,1.67
2022-10-21T08:41:29.005Z,1.52
2022-10-21T08:44:41.940Z,1.15
2022-10-21T08:47:25.889Z,1.60
2022-10-21T08:50:02.287Z,1.40
2022-10-21T08:52:42.672Z,1.40
2022-10-21T08:55:36.512Z,1.25
2022-10-21T08:58:04.895Z,1.23
2022-10-21T09:01:03.954Z,1.27
2022-10-21T09:04:04.113Z,1.17
2022-10-21T09:06:57.088Z,1.30
2022-10-21T09:09:56.915Z,1.13
2022-10-21T09:12:49.418Z,1.10
2022-10-21T09:15:30.081Z,1.40
2022-10-21T09:18:21.465Z,1.20
2022-10-21T09:20:56.208Z,1.50
2022-10-21T09:23:51.196Z,1.23
2022-10-21T09:26:41.619Z,1.23
2022-10-21T09:29:28.936Z,1.25
2022-10-21T09:32:40.020Z,1.48
2022-10-21T09:35:15.701Z,3.47
2022-10-21T09:37:48.772Z,1.52
2022-10-21T09:40:24.553Z,1.10
2022-10-21T09:42:58.886Z,1.35
2022-10-21T09:45:33.608Z,1.20
2022-10-21T09:48:27.261Z,1.30
2022-10-21T09:50:59.935Z,1.20
2022-10-21T09:53:52.911Z,1.30
2022-10-21T09:56:29.436Z,1.27
2022-10-21T09:59:15.264Z,1.30
2022-10-21T10:01:44.406Z,1.50
2022-10-21T10:04:30.626Z,1.40
2022-10-21T10:07:01.141Z,1.40
2022-10-21T10:09:31.016Z,1.40
2022-10-21T10:12:21.694Z,1.20
2022-10-21T10:14:49.718Z,1.10
2022-10-21T10:17:31.607Z,1.45
2022-10-21T10:20:04.475Z,1.25
2022-10-21T10:22:38.986Z,1.25
2022-10-21T10:25:14.889Z,1.55
2022-10-21T10:28:10.598Z,1.25
2022-10-21T10:30:43.543Z,1.58
2022-10-21T10:33:22.125Z,1.30
2022-10-21T10:36:05.173Z,1.05
2022-10-21T10:38:42.811Z,1.40
2022-10-21T10:41:17.886Z,1.25
2022-10-21T10:43:54.908Z,1.20
2022-10-21T10:46:31.792Z,1.35
2022-10-21T10:49:13.588Z,1.48
2022-10-21T10:51:42.503Z,1.10
2022-10-21T10:54:28.333Z,1.35
2022-10-21T10:57:01.106Z,1.40
2022-10-21T10:59:39.710Z,1.40
2022-10-21T11:02:09.734Z,1.35
2022-10-21T11:05:18.495Z,1.13
2022-10-21T11:07:50.968Z,1.48
2022-10-21T11:10:32.489Z,1.17
2022-10-21T11:13:13.068Z,1.20
2022-10-21T11:16:03.289Z,1.42
2022-10-21T11:18:49.644Z,1.40
2022-10-21T11:21:40.088Z,1.30
2022-10-21T11:24:35.865Z,1.30
2022-10-21T11:27:45.075Z,2.55
2022-10-21T11:30:19.706Z,1.25
2022-10-21T11:33:21.602Z,1.30
2022-10-21T11:36:30.993Z,1.23
2022-10-21T11:39:26.037Z,1.42
2022-10-21T11:42:16.653Z,1.40
2022-10-21T11:45:23.837Z,1.35
2022-10-21T11:47:56.044Z,1.52
2022-10-21T11:50:45.061Z,1.38
2022-10-21T11:54:03.049Z,1.10
2022-10-21T11:56:40.066Z,1.60
2022-10-21T11:59:31.422Z,1.70
2022-10-21T12:02:42.232Z,1.30
2022-10-21T12:05:15.715Z,1.20
2022-10-21T12:08:06.635Z,1.10
2022-10-21T12:10:54.476Z,1.50
2022-10-21T12:13:51.519Z,1.23
2022-10-21T12:16:27.193Z,1.20
2022-10-21T12:18:59.341Z,1.30
2022-10-21T12:21:40.128Z,1.15
2022-10-21T12:24:47.286Z,1.20
2022-10-21T12:27:33.994Z,1.13
2022-10-21T12:30:23.315Z,1.40
2022-10-21T12:33:29.019Z,1.52
2022-10-21T12:36:50.529Z,1.52
2022-10-21T12:39:35.608Z,1.38
2022-10-21T12:42:18.756Z,1.30
2022-10-21T12:44:48.562Z,1.30
2022-10-21T12:47:42.714Z,0.93
2022-10-21T12:50:26.081Z,1.20
2022-10-21T12:53:39.274Z,0.90
2022-10-21T12:56:08.896Z,0.95
2022-10-21T12:58:47.198Z,1.23
2022-10-21T13:01:37.731Z,1.10
2022-10-21T13:04:06.159Z,1.00
2022-10-21T13:06:53.487Z,1.10
2022-10-21T13:09:50.862Z,0.88
2022-10-21T13:12:23.827Z,1.00
2022-10-21T13:15:22.827Z,0.73
2022-10-21T13:17:57.777Z,0.80
2022-10-21T13:20:24.938Z,1.00
2022-10-21T13:23:29.346Z,0.60
2022-10-21T13:26:20.295Z,0.82
2022-10-21T13:29:17.739Z,0.57
2022-10-21T13:31:44.858Z,1.13
2022-10-21T13:34:29.722Z,0.70
2022-10-21T13:36:57.619Z,0.60
2022-10-21T13:39:31.789Z,0.55
2022-10-21T13:42:06.745Z,0.75
2022-10-21T13:44:39.956Z,0.70
2022-10-21T13:47:33.501Z,0.68
2022-10-21T13:50:28.431Z,0.70
2022-10-21T13:52:55.559Z,0.75
2022-10-21T13:55:26.222Z,0.60
2022-10-21T13:57:55.769Z,0.50
2022-10-21T14:00:30.876Z,0.40
2022-10-21T14:03:04.768Z,0.60
2022-10-21T14:05:46.543Z,0.60
2022-10-21T14:08:37.175Z,0.65
2022-10-21T14:11:27.992Z,0.68
2022-10-21T14:13:58.430Z,0.60
2022-10-21T14:16:57.673Z,0.50
2022-10-21T14:19:29.761Z,0.80
2022-10-21T14:21:59.290Z,0.80
2022-10-21T14:24:48.209Z,0.77
2022-10-21T14:27:21.482Z,0.85
2022-10-21T14:29:48.773Z,0.57
2022-10-21T14:32:20.135Z,0.50
2022-10-21T14:35:11.246Z,0.88
2022-10-21T14:37:45.897Z,0.60
2022-10-21T14:40:29.649Z,0.75
2022-10-21T14:42:56.619Z,0.68
2022-10-21T14:45:33.968Z,0.70
2022-10-21T14:48:33.718Z,0.75
2022-10-21T14:51:16.544Z,0.70
2022-10-21T14:54:05.241Z,0.60
2022-10-21T14:56:44.103Z,0.82
2022-10-21T14:59:25.493Z,1.02
2022-10-21T15:01:52.964Z,0.80
2022-10-21T15:04:56.453Z,0.90
2022-10-21T15:07:35.848Z,0.70
2022-10-21T15:10:02.682Z,0.90
2022-10-21T15:12:51.343Z,1.00
2022-10-21T15:15:49.773Z,0.90
2022-10-21T15:18:39.520Z,0.70
2022-10-21T15:21:11.266Z,0.75
2022-10-21T15:23:43.939Z,0.95
2022-10-21T15:26:17.985Z,0.85
2022-10-21T15:28:45.392Z,1.00
2022-10-21T15:31:22.918Z,0.80
2022-10-21T15:33:52.518Z,0.70
2022-10-21T15:36:19.712Z,1.02
2022-10-21T15:38:47.909Z,0.90
2022-10-21T15:41:22.309Z,0.80
2022-10-21T15:44:18.165Z,0.80
2022-10-21T15:46:50.071Z,1.00
2022-10-21T15:49:23.469Z,0.90
2022-10-21T15:51:51.006Z,0.88
2022-10-21T15:54:19.454Z,1.10
2022-10-21T15:56:54.494Z,0.90
2022-10-21T15:59:23.753Z,0.93
2022-10-21T16:01:51.924Z,1.05
2022-10-21T16:04:19.375Z,1.10
2022-10-21T16:06:50.324Z,1.10
2022-10-21T16:09:27.543Z,1.05
2022-10-21T16:12:00.483Z,0.90
2022-10-21T16:14:30.729Z,1.20
2022-10-21T16:16:58.728Z,1.13
2022-10-21T16:19:26.003Z,1.02
2022-10-21T16:21:52.892Z,1.05
2022-10-21T16:24:19.831Z,0.90
2022-10-21T16:26:49.272Z,1.10
2022-10-21T16:29:20.189Z,1.10
2022-10-21T16:31:47.552Z,1.10
2022-10-21T16:34:14.498Z,1.30
2022-10-21T16:36:41.478Z,1.30
2022-10-21T16:39:18.315Z,1.40
2022-10-21T16:41:45.255Z,1.35
2022-10-21T16:44:12.266Z,1.67
2022-10-21T16:47:00.734Z,1.85
2022-10-21T16:49:28.561Z,1.15
2022-10-21T16:51:57.505Z,1.25
2022-10-21T16:54:24.648Z,1.95
2022-10-21T16:56:54.898Z,1.30
2022-10-21T16:59:23.074Z,1.70
2022-10-21T17:01:50.139Z,1.58
2022-10-21T17:04:17.943Z,1.42
2022-10-21T17:06:44.824Z,1.10
2022-10-21T17:09:11.825Z,1.80
2022-10-21T17:11:41.149Z,1.60
2022-10-21T17:14:14.310Z,1.60
2022-10-21T17:16:45.000Z,1.30
2022-10-21T17:19:13.835Z,2.10
2022-10-21T17:21:40.915Z,1.98
2022-10-21T17:24:07.903Z,2.55
2022-10-21T17:26:34.834Z,1.60
2022-10-21T17:29:01.730Z,1.52
2022-10-21T17:31:30.506Z,2.00
2022-10-21T17:34:07.362Z,1.75
2022-10-21T17:36:38.207Z,2.28
2022-10-21T17:39:05.687Z,2.08
2022-10-21T17:41:32.949Z,1.90
2022-10-21T17:44:02.016Z,1.85
2022-10-21T17:46:29.006Z,2.08
2022-10-21T17:48:57.914Z,2.00
2022-10-21T17:51:25.486Z,1.77
2022-10-21T17:53:54.415Z,2.08
2022-10-21T17:56:22.477Z,1.73
2022-10-21T17:58:55.663Z,2.03
2022-10-21T18:01:25.163Z,1.90
2022-10-21T18:03:53.142Z,2.17
2022-10-21T18:06:21.391Z,1.95
2022-10-21T18:08:48.680Z,2.55
2022-10-21T18:11:19.372Z,1.75
2022-10-21T18:13:47.815Z,1.77
2022-10-21T18:16:22.306Z,2.22
2022-10-21T18:18:50.353Z,1.88
2022-10-21T18:21:21.104Z,1.98
2022-10-21T18:23:52.304Z,2.28
2022-10-21T18:26:29.436Z,2.42
2022-10-21T18:29:00.751Z,2.30
2022-10-21T18:31:31.274Z,1.90
2022-10-21T18:34:01.433Z,2.20
2022-10-21T18:36:29.046Z,2.25
2022-10-21T18:38:57.479Z,2.15
2022-10-21T18:41:24.675Z,2.30
2022-10-21T18:43:55.444Z,2.67
2022-10-21T18:46:23.626Z,2.28
2022-10-21T18:48:50.809Z,2.60
2022-10-21T18:51:19.869Z,2.67
2022-10-21T18:53:50.239Z,2.47
2022-10-21T18:56:22.198Z,2.83
2022-10-21T18:58:50.151Z,2.70
2022-10-21T19:01:18.919Z,2.25
2022-10-21T19:03:46.519Z,2.83
2022-10-21T19:06:29.201Z,2.90
2022-10-21T19:08:56.951Z,2.65
2022-10-21T19:11:23.906Z,2.90
2022-10-21T19:13:50.825Z,2.80
2022-10-21T19:16:17.758Z,2.50
2022-10-21T19:18:44.737Z,2.50
2022-10-21T19:21:13.048Z,2.60
2022-10-21T19:23:40.052Z,2.45
2022-10-21T19:26:08.873Z,3.00
2022-10-21T19:28:37.175Z,2.28
2022-10-21T19:31:04.268Z,2.42
2022-10-21T19:33:31.375Z,2.08
2022-10-21T19:36:06.236Z,2.58
2022-10-21T19:38:50.261Z,2.55
2022-10-21T19:41:21.980Z,2.30
2022-10-21T19:43:53.499Z,2.75
2022-10-21T19:46:25.602Z,2.30
2022-10-21T19:48:53.166Z,2.75
2022-10-21T19:51:23.700Z,3.20
2022-10-21T19:53:52.350Z,2.60
2022-10-21T19:56:23.738Z,3.05
2022-10-21T19:58:54.426Z,2.40
2022-10-21T20:01:25.233Z,2.65
2022-10-21T20:03:53.787Z,2.60
2022-10-21T20:06:25.636Z,2.90
2022-10-21T20:08:58.985Z,2.63
2022-10-21T20:11:27.786Z,2.05
2022-10-21T20:13:55.330Z,2.90
2022-10-21T20:16:32.583Z,2.72
2022-10-21T20:19:01.903Z,2.30
2022-10-21T20:21:30.594Z,2.10
2022-10-21T20:23:59.401Z,2.58
2022-10-21T20:26:28.642Z,2.40
2022-10-21T20:28:55.906Z,2.50
2022-10-21T20:31:23.324Z,2.53
2022-10-21T20:33:51.666Z,2.45
2022-10-21T20:36:32.655Z,2.80
2022-10-21T20:39:00.936Z,2.25
2022-10-21T20:41:35.982Z,2.50
2022-10-21T20:44:05.276Z,2.50
2022-10-21T20:46:35.142Z,2.70
2022-10-21T20:49:06.829Z,2.50
2022-10-21T20:51:36.629Z,2.90
2022-10-21T20:54:07.868Z,2.58
2022-10-21T20:56:38.600Z,2.50
2022-10-21T20:59:08.871Z,2.65
2022-10-21T21:01:41.820Z,2.13
2022-10-21T21:04:13.481Z,2.28
2022-10-21T21:06:45.244Z,2.85
2022-10-21T21:12:03.491Z,2.60
2022-10-21T21:14:31.166Z,2.88
2022-10-21T21:16:58.227Z,2.38
2022-10-21T21:19:25.801Z,2.50
2022-10-21T21:21:53.256Z,2.75
2022-10-21T21:24:20.249Z,2.50
2022-10-21T21:26:47.169Z,2.97
2022-10-21T21:29:14.746Z,2.67
2022-10-21T21:31:42.710Z,2.53
2022-10-21T21:34:10.567Z,2.42
2022-10-21T21:36:37.847Z,2.60
2022-10-21T21:39:07.711Z,2.28
2022-10-21T21:41:35.303Z,2.60
2022-10-21T21:44:02.315Z,2.42
2022-10-21T21:46:29.262Z,2.55
2022-10-21T21:49:03.865Z,2.28
2022-10-21T21:51:34.402Z,2.70
2022-10-21T21:54:01.315Z,2.55
2022-10-21T21:56:28.439Z,3.03
2022-10-21T21:58:58.622Z,2.25
2022-10-21T22:01:28.706Z,2.42
2022-10-21T22:03:57.058Z,2.42
2022-10-21T22:06:27.694Z,2.22
2022-10-21T22:08:54.950Z,2.35
2022-10-21T22:11:26.393Z,2.72
2022-10-21T22:13:53.720Z,2.22
2022-10-21T22:16:24.260Z,2.85
2022-10-21T22:18:51.541Z,2.17
2022-10-21T22:21:19.564Z,2.25
2022-10-21T22:23:48.904Z,1.98
2022-10-21T22:26:18.121Z,2.28
2022-10-21T22:28:45.889Z,2.08
2022-10-21T22:31:18.889Z,2.42
2022-10-21T22:33:46.385Z,2.08
2022-10-21T22:36:13.347Z,2.53
2022-10-21T22:38:40.268Z,2.70
2022-10-21T22:41:12.273Z,2.58
2022-10-21T22:43:39.694Z,2.53
2022-10-21T22:46:21.601Z,2.10
2022-10-21T22:48:53.811Z,2.97
2022-10-21T22:51:20.826Z,2.65
2022-10-21T22:53:53.397Z,2.67
2022-10-21T22:56:23.753Z,2.85
2022-10-21T22:58:50.640Z,2.47
2022-10-21T23:01:17.528Z,2.22
2022-10-21T23:03:44.422Z,2.70
2022-10-21T23:06:11.340Z,2.95
2022-10-21T23:08:38.327Z,2.85
2022-10-21T23:11:05.379Z,2.33
2022-10-21T23:13:32.390Z,2.63
2022-10-21T23:15:59.303Z,2.92
2022-10-21T23:18:26.256Z,2.63
2022-10-21T23:20:53.858Z,2.38
2022-10-21T23:23:20.738Z,2.90
2022-10-21T23:25:47.671Z,3.22
2022-10-21T23:28:14.675Z,2.55
2022-10-21T23:30:43.244Z,2.70
2022-10-21T23:33:10.674Z,2.45
2022-10-21T23:35:37.641Z,2.80
2022-10-21T23:38:04.605Z,2.60
2022-10-21T23:40:31.899Z,2.53
2022-10-21T23:42:58.778Z,2.60
2022-10-21T23:45:25.695Z,3.08
2022-10-21T23:47:52.578Z,2.25
2022-10-21T23:50:19.881Z,2.63
2022-10-21T23:52:46.861Z,2.83
2022-10-21T23:55:13.848Z,2.95
2022-10-21T23:57:41.014Z,2.50
